sensor_id;sensor_type;location;lat;lon;timestamp;P1;durP1;ratioP1;P2;durP2;ratioP2
45760;SDS011;31471;51.040;14.414;2022-07-29T00:00:04;3.67;;;1.92;;
45760;SDS011;31471;51.040;14.414;2022-07-29T00:02:31;3.92;;;1.73;;
45760;SDS011;31471;51.040;14.414;2022-07-29T00:04:57;3.08;;;2.38;;
45760;SDS011;31471;51.040;14.414;2022-07-29T00:07:23;3.28;;;2.40;;
45760;SDS011;31471;51.040;14.414;2022-07-29T00:09:49;5.10;;;2.17;;
45760;SDS011;31471;51.040;14.414;2022-07-29T00:12:15;3.10;;;2.15;;
45760;SDS011;31471;51.040;14.414;2022-07-29T00:14:41;5.28;;;2.70;;
45760;SDS011;31471;51.040;14.414;2022-07-29T00:17:06;4.88;;;2.45;;
45760;SDS011;31471;51.040;14.414;2022-07-29T00:19:32;2.17;;;1.98;;
45760;SDS011;31471;51.040;14.414;2022-07-29T00:21:59;3.10;;;2.10;;
45760;SDS011;31471;51.040;14.414;2022-07-29T00:24:25;3.13;;;2.22;;
45760;SDS011;31471;51.040;14.414;2022-07-29T00:26:50;4.85;;;3.20;;
45760;SDS011;31471;51.040;14.414;2022-07-29T00:29:16;3.13;;;1.75;;
45760;SDS011;31471;51.040;14.414;2022-07-29T00:31:41;5.18;;;2.30;;
45760;SDS011;31471;51.040;14.414;2022-07-29T00:34:07;3.58;;;2.13;;
45760;SDS011;31471;51.040;14.414;2022-07-29T00:36:52;3.00;;;1.95;;
45760;SDS011;31471;51.040;14.414;2022-07-29T00:39:18;4.95;;;1.80;;
45760;SDS011;31471;51.040;14.414;2022-07-29T00:41:43;4.03;;;2.40;;
45760;SDS011;31471;51.040;14.414;2022-07-29T00:44:09;4.10;;;2.25;;
45760;SDS011;31471;51.040;14.414;2022-07-29T00:46:34;5.75;;;2.47;;
45760;SDS011;31471;51.040;14.414;2022-07-29T00:49:00;3.13;;;2.35;;
45760;SDS011;31471;51.040;14.414;2022-07-29T00:51:26;4.85;;;3.22;;
45760;SDS011;31471;51.040;14.414;2022-07-29T00:53:52;3.60;;;2.13;;
45760;SDS011;31471;51.040;14.414;2022-07-29T00:56:18;2.92;;;2.15;;
45760;SDS011;31471;51.040;14.414;2022-07-29T00:58:44;4.00;;;2.08;;
45760;SDS011;31471;51.040;14.414;2022-07-29T01:01:12;4.22;;;2.30;;
45760;SDS011;31471;51.040;14.414;2022-07-29T01:03:37;4.40;;;2.40;;
45760;SDS011;31471;51.040;14.414;2022-07-29T01:06:03;2.97;;;2.30;;
45760;SDS011;31471;51.040;14.414;2022-07-29T01:08:29;2.83;;;2.15;;
45760;SDS011;31471;51.040;14.414;2022-07-29T01:10:56;6.75;;;2.33;;
45760;SDS011;31471;51.040;14.414;2022-07-29T01:13:22;3.05;;;2.22;;
45760;SDS011;31471;51.040;14.414;2022-07-29T01:15:49;6.07;;;2.95;;
45760;SDS011;31471;51.040;14.414;2022-07-29T01:18:28;5.07;;;2.45;;
45760;SDS011;31471;51.040;14.414;2022-07-29T01:21:12;7.35;;;2.92;;
45760;SDS011;31471;51.040;14.414;2022-07-29T01:29:24;3.70;;;2.88;;
45760;SDS011;31471;51.040;14.414;2022-07-29T01:32:01;4.03;;;2.13;;
45760;SDS011;31471;51.040;14.414;2022-07-29T01:37:24;7.47;;;3.08;;
45760;SDS011;31471;51.040;14.414;2022-07-29T01:39:55;4.97;;;2.47;;
45760;SDS011;31471;51.040;14.414;2022-07-29T01:42:42;2.75;;;1.92;;
45760;SDS011;31471;51.040;14.414;2022-07-29T01:45:14;3.22;;;2.30;;
45760;SDS011;31471;51.040;14.414;2022-07-29T01:47:44;3.92;;;2.30;;
45760;SDS011;31471;51.040;14.414;2022-07-29T01:50:19;3.92;;;2.20;;
45760;SDS011;31471;51.040;14.414;2022-07-29T01:53:02;4.88;;;2.20;;
45760;SDS011;31471;51.040;14.414;2022-07-29T01:55:32;3.10;;;2.17;;
45760;SDS011;31471;51.040;14.414;2022-07-29T01:58:02;3.67;;;2.25;;
45760;SDS011;31471;51.040;14.414;2022-07-29T02:00:30;3.67;;;2.20;;
45760;SDS011;31471;51.040;14.414;2022-07-29T02:02:58;3.17;;;2.42;;
45760;SDS011;31471;51.040;14.414;2022-07-29T02:05:27;5.40;;;2.63;;
45760;SDS011;31471;51.040;14.414;2022-07-29T02:07:53;6.20;;;2.75;;
45760;SDS011;31471;51.040;14.414;2022-07-29T02:10:22;5.47;;;2.60;;
45760;SDS011;31471;51.040;14.414;2022-07-29T02:12:51;3.97;;;2.50;;
45760;SDS011;31471;51.040;14.414;2022-07-29T02:15:18;3.85;;;2.38;;
45760;SDS011;31471;51.040;14.414;2022-07-29T02:20:22;3.53;;;2.58;;
45760;SDS011;31471;51.040;14.414;2022-07-29T02:22:49;5.93;;;3.70;;
45760;SDS011;31471;51.040;14.414;2022-07-29T02:25:17;7.43;;;4.60;;
45760;SDS011;31471;51.040;14.414;2022-07-29T02:27:43;5.93;;;3.00;;
45760;SDS011;31471;51.040;14.414;2022-07-29T02:30:10;4.35;;;2.90;;
45760;SDS011;31471;51.040;14.414;2022-07-29T02:32:37;2.90;;;2.50;;
45760;SDS011;31471;51.040;14.414;2022-07-29T02:35:05;6.03;;;3.40;;
45760;SDS011;31471;51.040;14.414;2022-07-29T02:37:33;7.68;;;3.13;;
45760;SDS011;31471;51.040;14.414;2022-07-29T02:40:00;6.40;;;2.90;;
45760;SDS011;31471;51.040;14.414;2022-07-29T02:42:26;5.50;;;2.85;;
45760;SDS011;31471;51.040;14.414;2022-07-29T02:44:53;5.53;;;3.20;;
45760;SDS011;31471;51.040;14.414;2022-07-29T02:47:53;4.82;;;2.70;;
45760;SDS011;31471;51.040;14.414;2022-07-29T02:50:15;3.58;;;2.83;;
45760;SDS011;31471;51.040;14.414;2022-07-29T02:55:22;5.40;;;3.00;;
45760;SDS011;31471;51.040;14.414;2022-07-29T02:57:56;5.40;;;3.00;;
45760;SDS011;31471;51.040;14.414;2022-07-29T03:00:37;5.90;;;3.38;;
45760;SDS011;31471;51.040;14.414;2022-07-29T03:03:08;5.18;;;2.78;;
45760;SDS011;31471;51.040;14.414;2022-07-29T03:05:37;4.68;;;2.78;;
45760;SDS011;31471;51.040;14.414;2022-07-29T03:08:05;3.58;;;3.10;;
45760;SDS011;31471;51.040;14.414;2022-07-29T03:10:33;5.20;;;2.58;;
45760;SDS011;31471;51.040;14.414;2022-07-29T03:12:59;5.95;;;2.83;;
45760;SDS011;31471;51.040;14.414;2022-07-29T03:17:51;3.90;;;2.70;;
45760;SDS011;31471;51.040;14.414;2022-07-29T03:20:17;4.63;;;2.92;;
45760;SDS011;31471;51.040;14.414;2022-07-29T03:22:44;4.57;;;2.95;;
45760;SDS011;31471;51.040;14.414;2022-07-29T03:25:13;6.38;;;3.10;;
45760;SDS011;31471;51.040;14.414;2022-07-29T03:27:40;6.00;;;3.40;;
45760;SDS011;31471;51.040;14.414;2022-07-29T03:30:06;3.92;;;2.67;;
45760;SDS011;31471;51.040;14.414;2022-07-29T03:32:33;7.50;;;3.47;;
45760;SDS011;31471;51.040;14.414;2022-07-29T03:34:59;4.53;;;2.90;;
45760;SDS011;31471;51.040;14.414;2022-07-29T03:37:24;3.72;;;2.65;;
45760;SDS011;31471;51.040;14.414;2022-07-29T03:39:50;5.05;;;3.42;;
45760;SDS011;31471;51.040;14.414;2022-07-29T03:42:19;5.13;;;3.05;;
45760;SDS011;31471;51.040;14.414;2022-07-29T03:44:48;5.90;;;3.30;;
45760;SDS011;31471;51.040;14.414;2022-07-29T03:47:17;4.88;;;3.05;;
45760;SDS011;31471;51.040;14.414;2022-07-29T03:49:46;4.40;;;3.10;;
45760;SDS011;31471;51.040;14.414;2022-07-29T03:52:14;7.00;;;4.40;;
45760;SDS011;31471;51.040;14.414;2022-07-29T03:54:40;3.85;;;3.03;;
45760;SDS011;31471;51.040;14.414;2022-07-29T03:57:06;10.45;;;4.03;;
45760;SDS011;31471;51.040;14.414;2022-07-29T03:59:32;6.95;;;3.65;;
45760;SDS011;31471;51.040;14.414;2022-07-29T04:01:59;6.32;;;3.53;;
45760;SDS011;31471;51.040;14.414;2022-07-29T04:04:28;4.22;;;3.60;;
45760;SDS011;31471;51.040;14.414;2022-07-29T04:06:53;7.30;;;3.58;;
45760;SDS011;31471;51.040;14.414;2022-07-29T04:09:19;5.57;;;3.80;;
45760;SDS011;31471;51.040;14.414;2022-07-29T04:11:44;5.47;;;3.53;;
45760;SDS011;31471;51.040;14.414;2022-07-29T04:14:10;3.92;;;3.20;;
45760;SDS011;31471;51.040;14.414;2022-07-29T04:16:36;8.05;;;3.20;;
45760;SDS011;31471;51.040;14.414;2022-07-29T04:19:01;5.88;;;3.30;;
45760;SDS011;31471;51.040;14.414;2022-07-29T04:21:27;5.22;;;3.13;;
45760;SDS011;31471;51.040;14.414;2022-07-29T04:23:53;6.22;;;3.40;;
45760;SDS011;31471;51.040;14.414;2022-07-29T04:26:19;4.35;;;3.45;;
45760;SDS011;31471;51.040;14.414;2022-07-29T04:31:10;5.13;;;3.40;;
45760;SDS011;31471;51.040;14.414;2022-07-29T04:33:36;5.97;;;4.15;;
45760;SDS011;31471;51.040;14.414;2022-07-29T04:36:02;5.00;;;3.88;;
45760;SDS011;31471;51.040;14.414;2022-07-29T04:38:28;7.28;;;4.38;;
45760;SDS011;31471;51.040;14.414;2022-07-29T04:40:53;5.75;;;3.72;;
45760;SDS011;31471;51.040;14.414;2022-07-29T04:43:19;5.53;;;3.85;;
45760;SDS011;31471;51.040;14.414;2022-07-29T04:45:44;8.13;;;4.38;;
45760;SDS011;31471;51.040;14.414;2022-07-29T04:48:10;7.15;;;4.25;;
45760;SDS011;31471;51.040;14.414;2022-07-29T04:50:39;7.65;;;4.05;;
45760;SDS011;31471;51.040;14.414;2022-07-29T04:53:05;5.00;;;3.97;;
45760;SDS011;31471;51.040;14.414;2022-07-29T04:57:57;6.05;;;3.40;;
45760;SDS011;31471;51.040;14.414;2022-07-29T05:00:22;8.18;;;3.92;;
45760;SDS011;31471;51.040;14.414;2022-07-29T05:02:48;5.85;;;4.00;;
45760;SDS011;31471;51.040;14.414;2022-07-29T05:05:14;6.03;;;4.00;;
45760;SDS011;31471;51.040;14.414;2022-07-29T05:07:39;5.60;;;3.80;;
45760;SDS011;31471;51.040;14.414;2022-07-29T05:10:05;5.57;;;4.22;;
45760;SDS011;31471;51.040;14.414;2022-07-29T05:12:31;5.00;;;4.32;;
45760;SDS011;31471;51.040;14.414;2022-07-29T05:14:57;7.50;;;4.28;;
45760;SDS011;31471;51.040;14.414;2022-07-29T05:17:22;4.95;;;3.38;;
45760;SDS011;31471;51.040;14.414;2022-07-29T05:19:48;7.05;;;3.85;;
45760;SDS011;31471;51.040;14.414;2022-07-29T05:22:15;6.30;;;3.90;;
45760;SDS011;31471;51.040;14.414;2022-07-29T05:24:40;6.00;;;3.72;;
45760;SDS011;31471;51.040;14.414;2022-07-29T05:27:06;4.63;;;3.55;;
45760;SDS011;31471;51.040;14.414;2022-07-29T05:29:32;6.53;;;4.25;;
45760;SDS011;31471;51.040;14.414;2022-07-29T05:31:57;5.20;;;4.13;;
45760;SDS011;31471;51.040;14.414;2022-07-29T05:34:23;4.75;;;3.75;;
45760;SDS011;31471;51.040;14.414;2022-07-29T05:36:49;5.80;;;3.72;;
45760;SDS011;31471;51.040;14.414;2022-07-29T05:39:15;6.30;;;3.92;;
45760;SDS011;31471;51.040;14.414;2022-07-29T05:41:41;6.22;;;3.25;;
45760;SDS011;31471;51.040;14.414;2022-07-29T05:44:06;6.40;;;3.45;;
45760;SDS011;31471;51.040;14.414;2022-07-29T05:46:32;7.15;;;3.67;;
45760;SDS011;31471;51.040;14.414;2022-07-29T05:48:58;5.75;;;3.90;;
45760;SDS011;31471;51.040;14.414;2022-07-29T05:51:23;6.30;;;3.65;;
45760;SDS011;31471;51.040;14.414;2022-07-29T05:53:49;9.77;;;4.00;;
45760;SDS011;31471;51.040;14.414;2022-07-29T05:56:14;6.88;;;3.97;;
45760;SDS011;31471;51.040;14.414;2022-07-29T05:58:40;3.97;;;3.58;;
45760;SDS011;31471;51.040;14.414;2022-07-29T06:01:05;4.93;;;3.90;;
45760;SDS011;31471;51.040;14.414;2022-07-29T06:03:31;5.55;;;3.83;;
45760;SDS011;31471;51.040;14.414;2022-07-29T06:05:57;6.07;;;3.38;;
45760;SDS011;31471;51.040;14.414;2022-07-29T06:08:22;6.15;;;3.60;;
45760;SDS011;31471;51.040;14.414;2022-07-29T06:10:48;5.78;;;4.32;;
45760;SDS011;31471;51.040;14.414;2022-07-29T06:13:13;7.70;;;4.03;;
45760;SDS011;31471;51.040;14.414;2022-07-29T06:15:41;6.25;;;3.97;;
45760;SDS011;31471;51.040;14.414;2022-07-29T06:18:07;4.88;;;4.00;;
45760;SDS011;31471;51.040;14.414;2022-07-29T06:20:34;6.00;;;3.67;;
45760;SDS011;31471;51.040;14.414;2022-07-29T06:23:00;6.57;;;3.78;;
45760;SDS011;31471;51.040;14.414;2022-07-29T06:25:26;7.95;;;3.85;;
45760;SDS011;31471;51.040;14.414;2022-07-29T06:27:55;7.03;;;3.15;;
45760;SDS011;31471;51.040;14.414;2022-07-29T06:32:47;7.03;;;3.53;;
45760;SDS011;31471;51.040;14.414;2022-07-29T06:35:13;6.22;;;3.42;;
45760;SDS011;31471;51.040;14.414;2022-07-29T06:37:38;6.63;;;3.28;;
45760;SDS011;31471;51.040;14.414;2022-07-29T06:40:04;3.03;;;2.72;;
45760;SDS011;31471;51.040;14.414;2022-07-29T06:42:48;3.85;;;3.47;;
45760;SDS011;31471;51.040;14.414;2022-07-29T06:45:14;5.07;;;3.40;;
45760;SDS011;31471;51.040;14.414;2022-07-29T06:47:41;4.07;;;3.00;;
45760;SDS011;31471;51.040;14.414;2022-07-29T06:50:06;3.88;;;2.90;;
45760;SDS011;31471;51.040;14.414;2022-07-29T06:52:36;5.30;;;2.92;;
45760;SDS011;31471;51.040;14.414;2022-07-29T06:55:01;4.25;;;2.92;;
45760;SDS011;31471;51.040;14.414;2022-07-29T06:57:27;5.00;;;2.78;;
45760;SDS011;31471;51.040;14.414;2022-07-29T06:59:53;4.88;;;2.50;;
45760;SDS011;31471;51.040;14.414;2022-07-29T07:02:20;5.28;;;2.95;;
45760;SDS011;31471;51.040;14.414;2022-07-29T07:04:46;5.43;;;2.65;;
45760;SDS011;31471;51.040;14.414;2022-07-29T07:07:11;4.10;;;2.78;;
45760;SDS011;31471;51.040;14.414;2022-07-29T07:09:37;2.85;;;2.53;;
45760;SDS011;31471;51.040;14.414;2022-07-29T07:12:02;4.32;;;2.53;;
45760;SDS011;31471;51.040;14.414;2022-07-29T07:14:28;5.05;;;2.80;;
45760;SDS011;31471;51.040;14.414;2022-07-29T07:16:54;4.75;;;3.20;;
45760;SDS011;31471;51.040;14.414;2022-07-29T07:19:19;4.82;;;2.55;;
45760;SDS011;31471;51.040;14.414;2022-07-29T07:21:45;3.30;;;2.60;;
45760;SDS011;31471;51.040;14.414;2022-07-29T07:24:10;3.28;;;2.15;;
45760;SDS011;31471;51.040;14.414;2022-07-29T07:26:36;7.03;;;2.80;;
45760;SDS011;31471;51.040;14.414;2022-07-29T07:29:02;7.03;;;2.80;;
45760;SDS011;31471;51.040;14.414;2022-07-29T07:31:28;6.28;;;2.53;;
45760;SDS011;31471;51.040;14.414;2022-07-29T07:33:54;5.18;;;2.22;;
45760;SDS011;31471;51.040;14.414;2022-07-29T07:36:20;3.83;;;2.50;;
45760;SDS011;31471;51.040;14.414;2022-07-29T07:41:11;2.92;;;2.22;;
45760;SDS011;31471;51.040;14.414;2022-07-29T07:46:02;4.22;;;2.60;;
45760;SDS011;31471;51.040;14.414;2022-07-29T07:50:53;3.33;;;2.20;;
45760;SDS011;31471;51.040;14.414;2022-07-29T07:53:19;3.60;;;2.15;;
45760;SDS011;31471;51.040;14.414;2022-07-29T07:58:10;3.72;;;2.45;;
45760;SDS011;31471;51.040;14.414;2022-07-29T08:03:01;3.20;;;2.30;;
45760;SDS011;31471;51.040;14.414;2022-07-29T08:07:53;3.45;;;2.25;;
45760;SDS011;31471;51.040;14.414;2022-07-29T08:13:03;5.13;;;2.40;;
45760;SDS011;31471;51.040;14.414;2022-07-29T08:15:29;4.78;;;3.00;;
45760;SDS011;31471;51.040;14.414;2022-07-29T08:20:20;7.75;;;2.55;;
45760;SDS011;31471;51.040;14.414;2022-07-29T08:22:46;3.90;;;2.17;;
45760;SDS011;31471;51.040;14.414;2022-07-29T08:27:37;3.33;;;1.77;;
45760;SDS011;31471;51.040;14.414;2022-07-29T08:30:02;3.25;;;2.17;;
45760;SDS011;31471;51.040;14.414;2022-07-29T08:32:29;3.38;;;2.40;;
45760;SDS011;31471;51.040;14.414;2022-07-29T08:34:56;6.60;;;3.10;;
45760;SDS011;31471;51.040;14.414;2022-07-29T08:37:21;3.60;;;2.38;;
45760;SDS011;31471;51.040;14.414;2022-07-29T08:39:47;5.43;;;2.00;;
45760;SDS011;31471;51.040;14.414;2022-07-29T08:42:13;3.05;;;2.05;;
45760;SDS011;31471;51.040;14.414;2022-07-29T08:44:38;2.33;;;2.13;;
45760;SDS011;31471;51.040;14.414;2022-07-29T08:47:04;4.57;;;2.38;;
45760;SDS011;31471;51.040;14.414;2022-07-29T08:49:30;2.85;;;2.08;;
45760;SDS011;31471;51.040;14.414;2022-07-29T08:51:58;4.30;;;2.25;;
45760;SDS011;31471;51.040;14.414;2022-07-29T08:54:25;5.03;;;2.30;;
45760;SDS011;31471;51.040;14.414;2022-07-29T08:56:51;4.35;;;2.40;;
45760;SDS011;31471;51.040;14.414;2022-07-29T08:59:18;4.50;;;2.22;;
45760;SDS011;31471;51.040;14.414;2022-07-29T09:01:46;4.05;;;2.30;;
45760;SDS011;31471;51.040;14.414;2022-07-29T09:04:13;2.83;;;2.30;;
45760;SDS011;31471;51.040;14.414;2022-07-29T09:06:45;4.50;;;1.85;;
45760;SDS011;31471;51.040;14.414;2022-07-29T09:09:12;7.25;;;2.80;;
45760;SDS011;31471;51.040;14.414;2022-07-29T09:11:39;5.78;;;2.38;;
45760;SDS011;31471;51.040;14.414;2022-07-29T09:14:05;5.10;;;2.50;;
45760;SDS011;31471;51.040;14.414;2022-07-29T09:19:19;3.33;;;2.13;;
45760;SDS011;31471;51.040;14.414;2022-07-29T09:21:48;6.15;;;2.58;;
45760;SDS011;31471;51.040;14.414;2022-07-29T09:24:23;3.90;;;2.20;;
45760;SDS011;31471;51.040;14.414;2022-07-29T09:29:55;3.22;;;2.10;;
45760;SDS011;31471;51.040;14.414;2022-07-29T09:32:22;3.65;;;2.20;;
45760;SDS011;31471;51.040;14.414;2022-07-29T09:34:47;7.25;;;2.10;;
45760;SDS011;31471;51.040;14.414;2022-07-29T09:37:25;3.17;;;2.28;;
45760;SDS011;31471;51.040;14.414;2022-07-29T09:39:54;4.53;;;2.53;;
45760;SDS011;31471;51.040;14.414;2022-07-29T09:42:29;4.00;;;2.08;;
45760;SDS011;31471;51.040;14.414;2022-07-29T09:44:57;3.28;;;2.30;;
45760;SDS011;31471;51.040;14.414;2022-07-29T09:47:22;3.33;;;2.15;;
45760;SDS011;31471;51.040;14.414;2022-07-29T09:50:14;3.35;;;2.05;;
45760;SDS011;31471;51.040;14.414;2022-07-29T09:52:50;4.18;;;2.00;;
45760;SDS011;31471;51.040;14.414;2022-07-29T09:55:16;3.30;;;2.13;;
45760;SDS011;31471;51.040;14.414;2022-07-29T09:57:42;4.68;;;2.42;;
45760;SDS011;31471;51.040;14.414;2022-07-29T10:00:13;3.15;;;2.30;;
45760;SDS011;31471;51.040;14.414;2022-07-29T10:02:42;3.85;;;2.10;;
45760;SDS011;31471;51.040;14.414;2022-07-29T10:05:16;4.28;;;2.55;;
45760;SDS011;31471;51.040;14.414;2022-07-29T10:07:46;3.20;;;2.33;;
45760;SDS011;31471;51.040;14.414;2022-07-29T10:10:25;2.80;;;2.60;;
45760;SDS011;31471;51.040;14.414;2022-07-29T10:13:11;3.05;;;2.08;;
45760;SDS011;31471;51.040;14.414;2022-07-29T10:15:39;7.38;;;2.30;;
45760;SDS011;31471;51.040;14.414;2022-07-29T10:18:08;2.67;;;2.08;;
45760;SDS011;31471;51.040;14.414;2022-07-29T10:20:35;3.47;;;2.00;;
45760;SDS011;31471;51.040;14.414;2022-07-29T10:23:02;5.00;;;2.70;;
45760;SDS011;31471;51.040;14.414;2022-07-29T10:25:28;3.65;;;2.30;;
45760;SDS011;31471;51.040;14.414;2022-07-29T10:27:54;2.85;;;2.55;;
45760;SDS011;31471;51.040;14.414;2022-07-29T10:30:20;3.28;;;2.47;;
45760;SDS011;31471;51.040;14.414;2022-07-29T10:35:44;2.50;;;2.30;;
45760;SDS011;31471;51.040;14.414;2022-07-29T10:44:01;2.90;;;2.33;;
45760;SDS011;31471;51.040;14.414;2022-07-29T10:46:28;8.38;;;2.80;;
45760;SDS011;31471;51.040;14.414;2022-07-29T10:49:03;3.53;;;2.30;;
45760;SDS011;31471;51.040;14.414;2022-07-29T10:57:15;6.28;;;2.80;;
45760;SDS011;31471;51.040;14.414;2022-07-29T10:59:46;3.67;;;2.58;;
45760;SDS011;31471;51.040;14.414;2022-07-29T11:07:26;3.30;;;2.90;;
45760;SDS011;31471;51.040;14.414;2022-07-29T11:15:07;3.65;;;2.40;;
45760;SDS011;31471;51.040;14.414;2022-07-29T11:23:19;4.70;;;2.30;;
45760;SDS011;31471;51.040;14.414;2022-07-29T11:31:19;2.70;;;2.20;;
45760;SDS011;31471;51.040;14.414;2022-07-29T11:39:31;3.17;;;2.30;;
45760;SDS011;31471;51.040;14.414;2022-07-29T11:50:12;3.28;;;2.28;;
45760;SDS011;31471;51.040;14.414;2022-07-29T11:52:42;2.60;;;2.40;;
45760;SDS011;31471;51.040;14.414;2022-07-29T11:55:16;3.65;;;2.30;;
45760;SDS011;31471;51.040;14.414;2022-07-29T11:58:01;4.43;;;2.40;;
45760;SDS011;31471;51.040;14.414;2022-07-29T12:00:31;3.38;;;2.65;;
45760;SDS011;31471;51.040;14.414;2022-07-29T12:02:58;3.28;;;2.15;;
45760;SDS011;31471;51.040;14.414;2022-07-29T12:05:39;3.15;;;2.50;;
45760;SDS011;31471;51.040;14.414;2022-07-29T12:08:06;2.67;;;2.17;;
45760;SDS011;31471;51.040;14.414;2022-07-29T12:10:34;3.05;;;2.50;;
45760;SDS011;31471;51.040;14.414;2022-07-29T12:13:00;4.53;;;2.42;;
45760;SDS011;31471;51.040;14.414;2022-07-29T12:15:26;4.18;;;2.80;;
45760;SDS011;31471;51.040;14.414;2022-07-29T12:17:51;2.78;;;2.50;;
45760;SDS011;31471;51.040;14.414;2022-07-29T12:20:24;4.35;;;2.40;;
45760;SDS011;31471;51.040;14.414;2022-07-29T12:22:52;3.20;;;2.60;;
45760;SDS011;31471;51.040;14.414;2022-07-29T12:25:19;4.45;;;2.60;;
45760;SDS011;31471;51.040;14.414;2022-07-29T12:27:46;3.55;;;2.63;;
45760;SDS011;31471;51.040;14.414;2022-07-29T12:30:13;3.63;;;2.42;;
45760;SDS011;31471;51.040;14.414;2022-07-29T12:32:44;5.90;;;2.67;;
45760;SDS011;31471;51.040;14.414;2022-07-29T12:35:12;3.95;;;3.10;;
45760;SDS011;31471;51.040;14.414;2022-07-29T12:37:46;3.92;;;2.33;;
45760;SDS011;31471;51.040;14.414;2022-07-29T12:40:16;3.80;;;2.85;;
45760;SDS011;31471;51.040;14.414;2022-07-29T12:45:34;3.78;;;2.88;;
45760;SDS011;31471;51.040;14.414;2022-07-29T12:48:01;5.13;;;3.10;;
45760;SDS011;31471;51.040;14.414;2022-07-29T12:50:27;5.45;;;2.75;;
45760;SDS011;31471;51.040;14.414;2022-07-29T12:52:53;6.05;;;3.17;;
45760;SDS011;31471;51.040;14.414;2022-07-29T12:55:37;3.55;;;2.83;;
45760;SDS011;31471;51.040;14.414;2022-07-29T12:58:07;5.63;;;3.17;;
45760;SDS011;31471;51.040;14.414;2022-07-29T13:00:33;3.33;;;2.63;;
45760;SDS011;31471;51.040;14.414;2022-07-29T13:02:59;3.60;;;2.40;;
45760;SDS011;31471;51.040;14.414;2022-07-29T13:05:39;2.97;;;2.70;;
45760;SDS011;31471;51.040;14.414;2022-07-29T13:08:13;2.90;;;2.60;;
45760;SDS011;31471;51.040;14.414;2022-07-29T13:10:39;2.88;;;2.40;;
45760;SDS011;31471;51.040;14.414;2022-07-29T13:13:12;3.08;;;2.47;;
45760;SDS011;31471;51.040;14.414;2022-07-29T13:15:40;3.53;;;2.45;;
45760;SDS011;31471;51.040;14.414;2022-07-29T13:18:26;2.75;;;2.55;;
45760;SDS011;31471;51.040;14.414;2022-07-29T13:20:56;3.78;;;2.83;;
45760;SDS011;31471;51.040;14.414;2022-07-29T13:23:22;2.60;;;2.40;;
45760;SDS011;31471;51.040;14.414;2022-07-29T13:25:48;4.88;;;2.53;;
45760;SDS011;31471;51.040;14.414;2022-07-29T13:28:13;2.80;;;2.30;;
45760;SDS011;31471;51.040;14.414;2022-07-29T13:30:39;2.88;;;2.55;;
45760;SDS011;31471;51.040;14.414;2022-07-29T13:33:05;3.08;;;2.75;;
45760;SDS011;31471;51.040;14.414;2022-07-29T13:35:31;2.88;;;2.50;;
45760;SDS011;31471;51.040;14.414;2022-07-29T13:37:57;3.58;;;2.63;;
45760;SDS011;31471;51.040;14.414;2022-07-29T13:43:04;2.75;;;2.45;;
45760;SDS011;31471;51.040;14.414;2022-07-29T13:45:30;4.45;;;2.42;;
45760;SDS011;31471;51.040;14.414;2022-07-29T13:47:55;5.93;;;2.78;;
45760;SDS011;31471;51.040;14.414;2022-07-29T13:50:21;4.03;;;2.45;;
45760;SDS011;31471;51.040;14.414;2022-07-29T13:52:46;3.60;;;2.60;;
45760;SDS011;31471;51.040;14.414;2022-07-29T13:55:13;2.63;;;2.28;;
45760;SDS011;31471;51.040;14.414;2022-07-29T13:57:38;2.38;;;2.17;;
45760;SDS011;31471;51.040;14.414;2022-07-29T14:00:04;4.75;;;2.88;;
45760;SDS011;31471;51.040;14.414;2022-07-29T14:02:33;4.03;;;2.42;;
45760;SDS011;31471;51.040;14.414;2022-07-29T14:04:59;4.57;;;2.88;;
45760;SDS011;31471;51.040;14.414;2022-07-29T14:07:24;2.80;;;2.47;;
45760;SDS011;31471;51.040;14.414;2022-07-29T14:09:50;3.33;;;2.58;;
45760;SDS011;31471;51.040;14.414;2022-07-29T14:12:16;3.03;;;2.60;;
45760;SDS011;31471;51.040;14.414;2022-07-29T14:14:41;2.40;;;2.20;;
45760;SDS011;31471;51.040;14.414;2022-07-29T14:17:07;6.57;;;2.75;;
45760;SDS011;31471;51.040;14.414;2022-07-29T14:19:32;3.53;;;2.42;;
45760;SDS011;31471;51.040;14.414;2022-07-29T14:22:01;5.63;;;2.35;;
45760;SDS011;31471;51.040;14.414;2022-07-29T14:24:27;3.35;;;2.95;;
45760;SDS011;31471;51.040;14.414;2022-07-29T14:26:53;3.80;;;2.88;;
45760;SDS011;31471;51.040;14.414;2022-07-29T14:29:18;3.85;;;2.90;;
45760;SDS011;31471;51.040;14.414;2022-07-29T14:31:44;2.83;;;2.53;;
45760;SDS011;31471;51.040;14.414;2022-07-29T14:34:09;3.33;;;2.35;;
45760;SDS011;31471;51.040;14.414;2022-07-29T14:36:35;3.58;;;2.58;;
45760;SDS011;31471;51.040;14.414;2022-07-29T14:39:00;6.88;;;2.88;;
45760;SDS011;31471;51.040;14.414;2022-07-29T14:41:26;2.75;;;2.40;;
45760;SDS011;31471;51.040;14.414;2022-07-29T14:43:53;3.33;;;2.33;;
45760;SDS011;31471;51.040;14.414;2022-07-29T14:46:19;7.50;;;2.80;;
45760;SDS011;31471;51.040;14.414;2022-07-29T14:48:44;3.47;;;3.03;;
45760;SDS011;31471;51.040;14.414;2022-07-29T14:51:10;3.85;;;3.00;;
45760;SDS011;31471;51.040;14.414;2022-07-29T14:53:36;4.47;;;2.83;;
45760;SDS011;31471;51.040;14.414;2022-07-29T14:56:02;4.07;;;2.70;;
45760;SDS011;31471;51.040;14.414;2022-07-29T14:58:28;3.45;;;2.53;;
45760;SDS011;31471;51.040;14.414;2022-07-29T15:00:53;29.58;;;4.95;;
45760;SDS011;31471;51.040;14.414;2022-07-29T15:03:19;33.10;;;4.15;;
45760;SDS011;31471;51.040;14.414;2022-07-29T15:05:45;6.68;;;2.60;;
45760;SDS011;31471;51.040;14.414;2022-07-29T15:08:11;8.35;;;2.78;;
45760;SDS011;31471;51.040;14.414;2022-07-29T15:10:36;6.35;;;3.28;;
45760;SDS011;31471;51.040;14.414;2022-07-29T15:13:02;6.72;;;3.08;;
45760;SDS011;31471;51.040;14.414;2022-07-29T15:15:28;17.95;;;4.22;;
45760;SDS011;31471;51.040;14.414;2022-07-29T15:17:53;4.65;;;3.30;;
45760;SDS011;31471;51.040;14.414;2022-07-29T15:20:19;3.65;;;2.60;;
45760;SDS011;31471;51.040;14.414;2022-07-29T15:22:46;4.40;;;2.80;;
45760;SDS011;31471;51.040;14.414;2022-07-29T15:25:11;8.20;;;3.03;;
45760;SDS011;31471;51.040;14.414;2022-07-29T15:27:37;3.58;;;2.80;;
45760;SDS011;31471;51.040;14.414;2022-07-29T15:30:02;3.13;;;2.70;;
45760;SDS011;31471;51.040;14.414;2022-07-29T15:32:28;2.70;;;2.45;;
45760;SDS011;31471;51.040;14.414;2022-07-29T15:34:54;5.82;;;2.90;;
45760;SDS011;31471;51.040;14.414;2022-07-29T15:37:20;4.28;;;2.67;;
45760;SDS011;31471;51.040;14.414;2022-07-29T15:39:45;3.33;;;2.78;;
45760;SDS011;31471;51.040;14.414;2022-07-29T15:42:11;3.15;;;2.67;;
45760;SDS011;31471;51.040;14.414;2022-07-29T15:44:36;3.97;;;3.25;;
45760;SDS011;31471;51.040;14.414;2022-07-29T15:47:02;4.40;;;2.53;;
45760;SDS011;31471;51.040;14.414;2022-07-29T15:49:28;5.10;;;2.88;;
45760;SDS011;31471;51.040;14.414;2022-07-29T15:51:58;3.58;;;2.90;;
45760;SDS011;31471;51.040;14.414;2022-07-29T15:54:24;3.72;;;2.88;;
45760;SDS011;31471;51.040;14.414;2022-07-29T15:56:50;3.13;;;2.80;;
45760;SDS011;31471;51.040;14.414;2022-07-29T15:59:15;6.53;;;2.95;;
45760;SDS011;31471;51.040;14.414;2022-07-29T16:01:41;5.15;;;3.15;;
45760;SDS011;31471;51.040;14.414;2022-07-29T16:04:06;2.90;;;2.60;;
45760;SDS011;31471;51.040;14.414;2022-07-29T16:06:32;4.20;;;2.60;;
45760;SDS011;31471;51.040;14.414;2022-07-29T16:08:57;3.97;;;2.58;;
45760;SDS011;31471;51.040;14.414;2022-07-29T16:11:24;5.95;;;2.75;;
45760;SDS011;31471;51.040;14.414;2022-07-29T16:13:50;5.47;;;2.80;;
45760;SDS011;31471;51.040;14.414;2022-07-29T16:16:16;10.10;;;3.50;;
45760;SDS011;31471;51.040;14.414;2022-07-29T16:18:43;8.32;;;3.45;;
45760;SDS011;31471;51.040;14.414;2022-07-29T16:21:10;3.80;;;2.72;;